Aeroporto :
LOGIN :

Iscrizione | Disclaimer

   EN    FR    IT 

 










Sommario :    VFR   VFR Marginale   IFR   IFR Intensivo   IFR Molto Intensivo
Visibilità : 
Base nubi : 
>= 8 km
>= 3000ft
5 / 8 km
1000 / 3000 ft
1500m / 5 km
500 / 1000 ft
800 / 1500m
200 / 500 ft
< 800m
< 200 ft
Simboli :   Temporali  Nebbia  Neve Forte  Precipitazioni Forti  Vento > 20 kt
SIGMETs :   Varie  Temporali  Ghiacco  Turbolenza  Onda orograficha  Ceneri Vulcaniche






- Altitudine del aeroporto : 16 ft
- Codice IATA : IGL


LTBL - Cigli AB

METARs OBSOLETI :
  • 020509Z VRB02KT 5000 -SHRA FEW020CB BKN035 BKN090 11/10 Q1008 RESHRA BECMG 13012G22KT 4000 SHRA RMK RWY17 VRB05KT
  • 020424Z 15013KT 4000 -TSRA FEW020CB SCT035 BKN100 12/10 Q1006 RESHRA BECMG TL0450 9999 NSW RMK RWY17 14012KT

TAF COR TAF LTBL
Valido dal 02 a 06 ore il 02 a 15 ore UTC


020440Z 0206/0215 13012G22KT 9999 SCT035 BKN100
TEMPO 0206/0210 4000 SHRA BKN030
BECMG 0210/0211 24012KT



MetMap, La meteo Aeronautica in un colpo d'occhio ! - Copyright ORBIFLY Dicembre 2007 - Disclaimer

ORBIFLY MET'MAP TEAM :

Programmazione e sviluppo : Alexandra Zaïnal
Concezione : Baudouin d'Aumeries
Aiuto per la programmazione : Marc-Olivier Méhu
Supporto tecnico e logistico : Manuel Goepfert
Aiuto per la traduzione : Arnaldo La Scala

Contatto : metmap@orbifly.com




FONTI E CREDITI :

   NOAA